Time;durP1;ratioP1;P1;durP2;ratioP2;P2;SDS_P1;SDS_P2;PMS_P1;PMS_P2;Temp;Humidity;BMP_temperature;BMP_pressure;BME280_temperature;BME280_humidity;BME280_pressure;Samples;Min_cycle;Max_cycle;Signal;HPM_P1;HPM_P2
2022/07/09 00:01:01;;;;;;;;;;;17.10;99.90;;;;;;5051289;28;19925;-66
2022/07/09 00:03:27;;;;;;;;;;;17.10;99.90;;;;;;5051959;28;19932;-66
2022/07/09 00:05:54;;;;;;;;;;;17.00;99.90;;;;;;5051379;28;19932;-67
2022/07/09 00:08:21;;;;;;;;;;;17.00;99.90;;;;;;5052153;28;19928;-66
2022/07/09 00:10:47;;;;;;;;;;;16.90;99.90;;;;;;5051608;28;20354;-66
2022/07/09 00:13:14;;;;;;;;;;;16.90;99.90;;;;;;5051799;28;19933;-67
2022/07/09 00:15:42;;;;;;;;;;;16.90;99.90;;;;;;5051690;28;19925;-67
2022/07/09 00:18:10;;;;;;;;;;;16.90;99.90;;;;;;5050441;28;20297;-66
2022/07/09 00:20:37;;;;;;;;;;;16.90;99.90;;;;;;5051297;28;19975;-66
2022/07/09 00:23:04;;;;;;;;;;;16.90;99.90;;;;;;5051488;28;19929;-66
2022/07/09 00:25:31;;;;;;;;;;;16.80;99.90;;;;;;5051690;28;19928;-68
2022/07/09 00:27:58;;;;;;;;;;;16.70;99.90;;;;;;5051509;28;19925;-67
2022/07/09 00:30:24;;;;;;;;;;;16.70;99.90;;;;;;5051219;28;19929;-67
2022/07/09 00:32:51;;;;;;;;;;;16.60;99.90;;;;;;5051332;28;19925;-68
2022/07/09 00:35:19;;;;;;;;;;;16.50;99.90;;;;;;5051314;28;19929;-66
2022/07/09 00:37:46;;;;;;;;;;;16.40;99.90;;;;;;5051289;28;19974;-66
2022/07/09 00:40:13;;;;;;;;;;;16.40;99.90;;;;;;5051126;28;20289;-66
2022/07/09 00:42:40;;;;;;;;;;;16.40;99.90;;;;;;5051116;28;19924;-68
2022/07/09 00:45:07;;;;;;;;;;;16.30;99.90;;;;;;5051597;28;19925;-66
2022/07/09 00:47:34;;;;;;;;;;;16.30;99.90;;;;;;5051121;28;19925;-67
2022/07/09 00:50:01;;;;;;;;;;;16.20;99.90;;;;;;5051169;28;19924;-66
2022/07/09 00:52:30;;;;;;;;;;;16.20;99.90;;;;;;5051069;28;19925;-67
2022/07/09 00:54:57;;;;;;;;;;;16.20;99.90;;;;;;5051419;28;19929;-67
2022/07/09 00:57:24;;;;;;;;;;;16.20;99.90;;;;;;5051112;28;20311;-67
2022/07/09 00:59:51;;;;;;;;;;;16.30;99.90;;;;;;5051065;28;19937;-67
2022/07/09 01:02:19;;;;;;;;;;;16.30;99.90;;;;;;5050925;28;20396;-67
2022/07/09 01:04:46;;;;;;;;;;;16.30;99.90;;;;;;5050953;28;19925;-67
2022/07/09 01:07:13;;;;;;;;;;;16.20;99.90;;;;;;5050769;28;19932;-67
2022/07/09 01:09:41;;;;;;;;;;;16.20;99.90;;;;;;5050554;28;20372;-67
2022/07/09 01:12:08;;;;;;;;;;;16.10;99.90;;;;;;5050950;28;19924;-66
2022/07/09 01:14:35;;;;;;;;;;;16.00;99.90;;;;;;5051122;28;19924;-66
2022/07/09 01:17:04;;;;;;;;;;;16.00;99.90;;;;;;5050791;28;19924;-67
2022/07/09 01:19:31;;;;;;;;;;;16.00;99.90;;;;;;5050391;28;20442;-66
2022/07/09 01:21:59;;;;;;;;;;;16.00;99.90;;;;;;5051101;28;20327;-67
2022/07/09 01:24:26;;;;;;;;;;;15.90;99.90;;;;;;5050809;28;19948;-66
2022/07/09 01:26:54;;;;;;;;;;;15.90;99.90;;;;;;5051785;28;19928;-66
2022/07/09 01:29:21;;;;;;;;;;;15.80;99.90;;;;;;5051729;28;19970;-66
2022/07/09 01:31:48;;;;;;;;;;;15.70;99.90;;;;;;5054843;28;19924;-67
2022/07/09 01:34:15;;;;;;;;;;;15.70;99.90;;;;;;5054902;28;19971;-66
2022/07/09 01:36:42;;;;;;;;;;;15.70;99.90;;;;;;5054940;28;19929;-66
2022/07/09 01:39:10;;;;;;;;;;;15.70;99.90;;;;;;5054190;28;19925;-66
2022/07/09 01:41:37;;;;;;;;;;;15.70;99.90;;;;;;5054454;28;19925;-66
2022/07/09 01:44:04;;;;;;;;;;;15.70;99.90;;;;;;5054803;28;19925;-66
2022/07/09 01:46:30;;;;;;;;;;;15.70;99.90;;;;;;5054548;28;19929;-66
2022/07/09 01:48:57;;;;;;;;;;;15.70;99.90;;;;;;5054276;28;20289;-67
2022/07/09 01:51:24;;;;;;;;;;;15.60;99.90;;;;;;5054073;28;20281;-66
2022/07/09 01:53:51;;;;;;;;;;;15.60;99.90;;;;;;5054671;28;19929;-66
2022/07/09 01:56:19;;;;;;;;;;;15.60;99.90;;;;;;5054132;28;19925;-66
2022/07/09 01:58:46;;;;;;;;;;;15.60;99.90;;;;;;5055265;28;19983;-66
2022/07/09 02:01:13;;;;;;;;;;;15.60;99.90;;;;;;5054081;28;19929;-67
2022/07/09 02:03:39;;;;;;;;;;;15.60;99.90;;;;;;5054190;28;19925;-66
2022/07/09 02:06:06;;;;;;;;;;;15.60;99.90;;;;;;5053851;28;20023;-66
2022/07/09 02:08:33;;;;;;;;;;;15.60;99.90;;;;;;5054299;28;19924;-66
2022/07/09 02:11:00;;;;;;;;;;;15.60;99.90;;;;;;5054067;28;19925;-67
2022/07/09 02:13:28;;;;;;;;;;;15.50;99.90;;;;;;5054165;28;19971;-66
2022/07/09 02:15:55;;;;;;;;;;;15.50;99.90;;;;;;5053945;28;19925;-66
2022/07/09 02:18:22;;;;;;;;;;;15.50;99.90;;;;;;5053678;28;19975;-67
2022/07/09 02:20:49;;;;;;;;;;;15.40;99.90;;;;;;5054017;28;19929;-66
2022/07/09 02:23:15;;;;;;;;;;;15.40;99.90;;;;;;5054106;28;20001;-66
2022/07/09 02:25:42;;;;;;;;;;;15.30;99.90;;;;;;5053821;28;19929;-66
2022/07/09 02:28:09;;;;;;;;;;;15.30;99.90;;;;;;5053595;28;19940;-67
2022/07/09 02:30:37;;;;;;;;;;;15.30;99.90;;;;;;5053766;28;19925;-66
2022/07/09 02:33:04;;;;;;;;;;;15.30;99.90;;;;;;5053578;28;20393;-66
2022/07/09 02:35:31;;;;;;;;;;;15.30;99.90;;;;;;5053561;28;20392;-66
2022/07/09 02:37:58;;;;;;;;;;;15.30;99.90;;;;;;5053599;28;20469;-67
2022/07/09 02:40:24;;;;;;;;;;;15.30;99.90;;;;;;5052711;28;19932;-66
2022/07/09 02:42:51;;;;;;;;;;;15.30;99.90;;;;;;5053125;28;19929;-66
2022/07/09 02:45:18;;;;;;;;;;;15.20;99.90;;;;;;5053299;28;19925;-66
2022/07/09 02:47:46;;;;;;;;;;;15.20;99.90;;;;;;5053342;28;19978;-67
2022/07/09 02:50:13;;;;;;;;;;;15.20;99.90;;;;;;5053018;28;19925;-66
2022/07/09 02:52:40;;;;;;;;;;;15.20;99.90;;;;;;5053188;28;19979;-66
2022/07/09 02:55:07;;;;;;;;;;;15.20;99.90;;;;;;5053380;28;19932;-67
2022/07/09 02:57:33;;;;;;;;;;;15.20;99.90;;;;;;5053264;28;19974;-66
2022/07/09 03:00:00;;;;;;;;;;;15.20;99.90;;;;;;5052674;28;19982;-66
2022/07/09 03:02:27;;;;;;;;;;;15.10;99.90;;;;;;5053281;28;19970;-67
2022/07/09 03:04:55;;;;;;;;;;;15.10;99.90;;;;;;5053014;28;20438;-66
2022/07/09 03:07:23;;;;;;;;;;;15.00;99.90;;;;;;5052890;28;19925;-66
2022/07/09 03:09:50;;;;;;;;;;;15.00;99.90;;;;;;5052598;28;19925;-66
2022/07/09 03:12:17;;;;;;;;;;;15.00;99.90;;;;;;5052917;28;19933;-66
2022/07/09 03:14:43;;;;;;;;;;;15.00;99.90;;;;;;5053061;28;20019;-67
2022/07/09 03:17:10;;;;;;;;;;;15.00;99.90;;;;;;5052765;28;19929;-66
2022/07/09 03:19:37;;;;;;;;;;;15.00;99.90;;;;;;5052452;28;19932;-66
2022/07/09 03:22:06;;;;;;;;;;;15.00;99.90;;;;;;5052775;28;19925;-67
2022/07/09 03:24:32;;;;;;;;;;;14.90;99.90;;;;;;5052709;28;19959;-65
2022/07/09 03:26:59;;;;;;;;;;;14.90;99.90;;;;;;5053009;28;19979;-66
2022/07/09 03:29:26;;;;;;;;;;;14.90;99.90;;;;;;5052650;28;19952;-67
2022/07/09 03:31:53;;;;;;;;;;;14.80;99.90;;;;;;5052569;28;20324;-65
2022/07/09 03:34:20;;;;;;;;;;;14.90;99.90;;;;;;5052467;28;19925;-66
2022/07/09 03:36:46;;;;;;;;;;;14.90;99.90;;;;;;5052592;28;19928;-66
2022/07/09 03:39:14;;;;;;;;;;;15.00;99.90;;;;;;5051961;28;19982;-66
2022/07/09 03:41:42;;;;;;;;;;;14.90;99.90;;;;;;5052507;28;20379;-66
2022/07/09 03:44:08;;;;;;;;;;;14.90;99.90;;;;;;5052282;28;19928;-67
2022/07/09 03:46:35;;;;;;;;;;;14.90;99.90;;;;;;5052405;28;19925;-67
2022/07/09 03:49:02;;;;;;;;;;;14.80;99.90;;;;;;5052004;28;19931;-66
2022/07/09 03:51:29;;;;;;;;;;;14.80;99.90;;;;;;5052146;28;20433;-67
2022/07/09 03:53:55;;;;;;;;;;;14.80;99.90;;;;;;5051922;28;19928;-67
2022/07/09 03:56:23;;;;;;;;;;;14.80;99.90;;;;;;5052325;28;19924;-66
2022/07/09 03:58:50;;;;;;;;;;;14.80;99.90;;;;;;5051644;28;19924;-64
2022/07/09 04:01:17;;;;;;;;;;;14.80;99.90;;;;;;5052179;28;20339;-66
2022/07/09 04:03:44;;;;;;;;;;;14.80;99.90;;;;;;5052144;28;19924;-66
2022/07/09 04:06:11;;;;;;;;;;;14.80;99.90;;;;;;5051721;28;19924;-66
2022/07/09 04:08:38;;;;;;;;;;;14.80;99.90;;;;;;5051728;28;20346;-66
2022/07/09 04:11:05;;;;;;;;;;;14.80;99.90;;;;;;5051840;28;19929;-66
2022/07/09 04:13:33;;;;;;;;;;;14.80;99.90;;;;;;5051945;28;20438;-66
2022/07/09 04:16:00;;;;;;;;;;;14.70;99.90;;;;;;5051754;28;19924;-66
2022/07/09 04:18:26;;;;;;;;;;;14.70;99.90;;;;;;5051674;28;19929;-67
2022/07/09 04:20:54;;;;;;;;;;;14.80;99.90;;;;;;5051616;28;19925;-66
2022/07/09 04:23:21;;;;;;;;;;;14.70;99.90;;;;;;5051447;28;19931;-66
2022/07/09 04:25:50;;;;;;;;;;;14.70;99.90;;;;;;5051646;28;19925;-66
2022/07/09 04:28:17;;;;;;;;;;;14.80;99.90;;;;;;5051574;28;19924;-66
2022/07/09 04:30:45;;;;;;;;;;;14.80;99.90;;;;;;5051099;28;19925;-66
2022/07/09 04:33:12;;;;;;;;;;;14.90;99.90;;;;;;5051606;28;19925;-66
2022/07/09 04:35:39;;;;;;;;;;;15.00;99.90;;;;;;5051698;28;19944;-66
2022/07/09 04:38:05;;;;;;;;;;;15.00;99.90;;;;;;5051369;28;19925;-66
2022/07/09 04:40:32;;;;;;;;;;;15.00;99.90;;;;;;5051048;28;20343;-66
2022/07/09 04:42:59;;;;;;;;;;;15.00;99.90;;;;;;5051523;28;20021;-66
2022/07/09 04:45:26;;;;;;;;;;;15.10;99.90;;;;;;5051223;28;19928;-66
2022/07/09 04:47:54;;;;;;;;;;;15.20;99.90;;;;;;5051553;28;19924;-66
2022/07/09 04:50:21;;;;;;;;;;;15.30;99.90;;;;;;5051155;28;19931;-66
2022/07/09 04:52:47;;;;;;;;;;;15.20;99.90;;;;;;5051151;28;20388;-66
2022/07/09 04:55:15;;;;;;;;;;;15.30;99.90;;;;;;5051258;28;19938;-67
2022/07/09 04:57:42;;;;;;;;;;;15.40;99.90;;;;;;5051135;28;19925;-67
2022/07/09 05:00:10;;;;;;;;;;;15.50;99.90;;;;;;5050736;28;20388;-66
2022/07/09 05:02:37;;;;;;;;;;;15.50;99.90;;;;;;5045100;28;19933;-66
2022/07/09 05:05:06;;;;;;;;;;;15.40;99.90;;;;;;5040594;28;19968;-66
2022/07/09 05:07:33;;;;;;;;;;;15.40;99.90;;;;;;5043398;28;19925;-66
2022/07/09 05:10:01;;;;;;;;;;;15.40;99.90;;;;;;5050533;28;19991;-66
2022/07/09 05:12:28;;;;;;;;;;;15.40;99.90;;;;;;5033095;28;19992;-66
2022/07/09 05:14:55;;;;;;;;;;;15.50;99.90;;;;;;5031013;28;19979;-66
2022/07/09 05:17:22;;;;;;;;;;;15.60;99.90;;;;;;5030875;28;19931;-66
2022/07/09 05:19:49;;;;;;;;;;;15.70;99.90;;;;;;5038622;28;19924;-66
2022/07/09 05:22:17;;;;;;;;;;;15.80;99.90;;;;;;5050880;28;19925;-67
2022/07/09 05:24:44;;;;;;;;;;;16.00;99.90;;;;;;5050827;28;19982;-66
2022/07/09 05:27:11;;;;;;;;;;;16.10;99.90;;;;;;5050884;28;19931;-67
2022/07/09 05:29:37;;;;;;;;;;;16.20;99.90;;;;;;5050742;28;19924;-66
2022/07/09 05:32:05;;;;;;;;;;;16.40;99.90;;;;;;5050699;28;19929;-66
2022/07/09 05:34:31;;;;;;;;;;;16.60;99.90;;;;;;5050739;28;19929;-66
2022/07/09 05:36:59;;;;;;;;;;;16.60;99.90;;;;;;5041647;28;19925;-68
2022/07/09 05:39:27;;;;;;;;;;;16.80;99.90;;;;;;5030624;28;19957;-66
2022/07/09 05:41:53;;;;;;;;;;;16.80;99.90;;;;;;5030747;28;19926;-66
2022/07/09 05:44:20;;;;;;;;;;;17.00;99.90;;;;;;5030669;28;20356;-66
2022/07/09 05:46:47;;;;;;;;;;;17.00;99.90;;;;;;5030775;28;19925;-66
2022/07/09 05:49:14;;;;;;;;;;;17.10;99.90;;;;;;5030267;28;19925;-66
2022/07/09 05:51:41;;;;;;;;;;;17.10;99.90;;;;;;5030510;28;19975;-65
2022/07/09 05:54:07;;;;;;;;;;;17.20;99.90;;;;;;5030441;28;20411;-66
2022/07/09 05:56:36;;;;;;;;;;;17.40;99.90;;;;;;5030844;28;20032;-65
2022/07/09 05:59:04;;;;;;;;;;;17.50;99.90;;;;;;5030135;28;19925;-66
2022/07/09 06:01:31;;;;;;;;;;;17.50;99.90;;;;;;5030349;28;20404;-66
2022/07/09 06:03:57;;;;;;;;;;;17.50;99.90;;;;;;5030491;28;19932;-66
2022/07/09 06:06:24;;;;;;;;;;;17.60;99.90;;;;;;5030164;28;20004;-66
2022/07/09 06:08:51;;;;;;;;;;;17.70;99.90;;;;;;5030431;28;19932;-64
2022/07/09 06:11:18;;;;;;;;;;;17.80;99.90;;;;;;5041291;28;19929;-66
2022/07/09 06:13:47;;;;;;;;;;;17.80;99.90;;;;;;5050212;28;20396;-67
2022/07/09 06:16:13;;;;;;;;;;;17.80;99.90;;;;;;5052512;28;19929;-66
2022/07/09 06:18:40;;;;;;;;;;;18.00;99.90;;;;;;5053790;28;19925;-64
2022/07/09 06:21:07;;;;;;;;;;;18.20;99.90;;;;;;5053743;28;19982;-67
2022/07/09 06:23:34;;;;;;;;;;;18.20;99.90;;;;;;5053766;28;20354;-66
2022/07/09 06:26:00;;;;;;;;;;;18.30;99.90;;;;;;5054033;28;19975;-66
2022/07/09 06:28:27;;;;;;;;;;;18.40;99.90;;;;;;5053729;28;19925;-67
2022/07/09 06:30:55;;;;;;;;;;;18.60;99.90;;;;;;5053449;28;19932;-66
2022/07/09 06:33:22;;;;;;;;;;;18.80;99.90;;;;;;5053863;28;19925;-66
2022/07/09 06:35:49;;;;;;;;;;;18.70;99.90;;;;;;5053600;28;19929;-65
2022/07/09 06:38:16;;;;;;;;;;;18.90;99.90;;;;;;5053497;28;20281;-67
2022/07/09 06:40:43;;;;;;;;;;;19.10;99.90;;;;;;5053313;28;20367;-66
2022/07/09 06:43:11;;;;;;;;;;;19.30;99.90;;;;;;5053355;28;20384;-65
2022/07/09 06:45:45;;;;;;;;;;;19.50;99.90;;;;;;5053554;28;19924;-66
2022/07/09 06:48:13;;;;;;;;;;;19.40;99.90;;;;;;5053257;28;20358;-66
2022/07/09 06:50:40;;;;;;;;;;;19.30;99.90;;;;;;5053240;28;20339;-66
2022/07/09 06:53:06;;;;;;;;;;;19.30;99.90;;;;;;5053363;28;19937;-66
2022/07/09 06:55:33;;;;;;;;;;;19.40;99.90;;;;;;5053420;28;19928;-66
2022/07/09 06:58:00;;;;;;;;;;;19.50;99.90;;;;;;5052998;28;19970;-67
2022/07/09 07:00:27;;;;;;;;;;;19.70;99.90;;;;;;5053056;28;19929;-66
2022/07/09 07:02:59;;;;;;;;;;;19.70;99.90;;;;;;5069610;28;22259;-64
2022/07/09 07:05:27;;;;;;;;;;;19.80;99.90;;;;;;5052906;28;19948;-66
2022/07/09 07:07:54;;;;;;;;;;;19.80;99.90;;;;;;5052627;28;19982;-65
2022/07/09 07:10:21;;;;;;;;;;;19.80;99.90;;;;;;5050372;28;20334;-66
2022/07/09 07:12:47;;;;;;;;;;;19.90;99.90;;;;;;5032947;28;20371;-66
2022/07/09 07:15:14;;;;;;;;;;;19.90;99.90;;;;;;5033194;28;19979;-67
2022/07/09 07:17:41;;;;;;;;;;;20.10;99.90;;;;;;5032937;28;20343;-66
2022/07/09 07:20:08;;;;;;;;;;;20.10;99.90;;;;;;5032588;28;19975;-67
2022/07/09 07:22:36;;;;;;;;;;;20.20;99.90;;;;;;5032687;28;19926;-67
2022/07/09 07:25:03;;;;;;;;;;;20.30;99.90;;;;;;5032941;28;19929;-66
2022/07/09 07:27:30;;;;;;;;;;;20.30;99.90;;;;;;5032249;28;19929;-66
2022/07/09 07:29:57;;;;;;;;;;;20.50;99.90;;;;;;5032587;28;19926;-67
2022/07/09 07:32:23;;;;;;;;;;;20.70;99.90;;;;;;5032628;28;19975;-66
2022/07/09 07:34:50;;;;;;;;;;;21.00;99.90;;;;;;5032597;28;19925;-66
2022/07/09 07:37:17;;;;;;;;;;;21.10;99.90;;;;;;5032480;28;20355;-66
2022/07/09 07:39:47;;;;;;;;;;;21.10;99.90;;;;;;5032541;28;19929;-66
2022/07/09 07:42:15;;;;;;;;;;;21.20;99.90;;;;;;5032451;28;19979;-65
2022/07/09 07:44:41;;;;;;;;;;;21.30;99.90;;;;;;5032500;28;19925;-68
2022/07/09 07:47:08;;;;;;;;;;;21.30;99.90;;;;;;5032296;28;19925;-66
2022/07/09 07:49:35;;;;;;;;;;;21.50;99.90;;;;;;5031936;28;19941;-66
2022/07/09 07:52:03;;;;;;;;;;;21.60;99.90;;;;;;5032258;28;20389;-67
2022/07/09 07:54:29;;;;;;;;;;;21.90;99.90;;;;;;5032252;28;19933;-66
2022/07/09 07:56:58;;;;;;;;;;;21.80;99.90;;;;;;5032288;28;19925;-67
2022/07/09 07:59:24;;;;;;;;;;;21.80;99.90;;;;;;5063895;23;19925;-68
2022/07/09 08:01:51;;;;;;;;;;;21.80;99.90;;;;;;5051861;28;20511;-68
2022/07/09 08:04:18;;;;;;;;;;;21.80;99.90;;;;;;5051910;28;19975;-67
2022/07/09 08:06:44;;;;;;;;;;;21.80;99.90;;;;;;5051567;28;19961;-68
2022/07/09 08:09:11;;;;;;;;;;;21.80;99.90;;;;;;5051693;28;19994;-71
2022/07/09 08:11:37;;;;;;;;;;;21.80;99.90;;;;;;5051821;28;20416;-68
2022/07/09 08:14:06;;;;;;;;;;;21.80;99.90;;;;;;5051559;28;20016;-68
2022/07/09 08:16:33;;;;;;;;;;;21.90;99.90;;;;;;5051652;28;19933;-71
2022/07/09 08:19:00;;;;;;;;;;;22.10;99.90;;;;;;5051438;28;19968;-68
2022/07/09 08:21:26;;;;;;;;;;;22.20;99.90;;;;;;5051670;28;20343;-68
2022/07/09 08:23:53;;;;;;;;;;;22.50;99.90;;;;;;5051602;28;19974;-68
2022/07/09 08:26:20;;;;;;;;;;;22.40;99.90;;;;;;5051685;28;19925;-68
2022/07/09 08:28:47;;;;;;;;;;;22.50;99.90;;;;;;5051242;28;19925;-66
2022/07/09 08:31:15;;;;;;;;;;;22.30;99.90;;;;;;5051445;28;20013;-68
2022/07/09 08:33:42;;;;;;;;;;;22.20;99.90;;;;;;5051329;28;20388;-68
2022/07/09 08:36:09;;;;;;;;;;;22.20;99.90;;;;;;5051362;28;20289;-69
2022/07/09 08:38:35;;;;;;;;;;;22.10;99.90;;;;;;5050622;28;19928;-68
2022/07/09 08:41:04;;;;;;;;;;;22.10;99.90;;;;;;5050959;28;19933;-68
2022/07/09 08:43:33;;;;;;;;;;;22.10;99.90;;;;;;5051389;28;19929;-68
2022/07/09 08:45:59;;;;;;;;;;;22.30;99.90;;;;;;5051161;28;19925;-69
2022/07/09 08:48:28;;;;;;;;;;;22.50;99.90;;;;;;5050993;28;20388;-68
2022/07/09 08:50:55;;;;;;;;;;;22.70;99.90;;;;;;5050963;28;19924;-68
2022/07/09 08:53:21;;;;;;;;;;;23.30;99.90;;;;;;5050984;28;19929;-71
2022/07/09 08:55:48;;;;;;;;;;;23.70;99.90;;;;;;5051071;28;19925;-68
2022/07/09 08:58:15;;;;;;;;;;;23.90;99.90;;;;;;5051043;28;19928;-69
2022/07/09 09:00:42;;;;;;;;;;;23.80;99.90;;;;;;5050856;28;19934;-69
2022/07/09 09:03:09;;;;;;;;;;;23.70;99.90;;;;;;5051060;28;19924;-69
2022/07/09 09:05:37;;;;;;;;;;;23.80;99.90;;;;;;5051012;28;20389;-68
2022/07/09 09:08:17;;;;;;;;;;;24.10;99.90;;;;;;5050743;28;19925;-68
2022/07/09 09:10:46;;;;;;;;;;;23.80;99.90;;;;;;5045097;28;19932;-68
2022/07/09 09:13:14;;;;;;;;;;;23.80;99.90;;;;;;5030870;28;19933;-66
2022/07/09 09:15:41;;;;;;;;;;;23.90;99.90;;;;;;5030862;28;19928;-68
2022/07/09 09:18:08;;;;;;;;;;;23.70;99.90;;;;;;5030980;28;19933;-68
2022/07/09 09:20:36;;;;;;;;;;;23.60;99.90;;;;;;5030501;28;19925;-69
2022/07/09 09:23:09;;;;;;;;;;;23.70;99.90;;;;;;5030894;28;19975;-69
2022/07/09 09:25:36;;;;;;;;;;;23.70;99.90;;;;;;5031179;28;19925;-69
2022/07/09 09:28:03;;;;;;;;;;;23.90;99.90;;;;;;5031262;28;19971;-68
2022/07/09 09:30:31;;;;;;;;;;;23.60;99.90;;;;;;5030611;28;19979;-68
2022/07/09 09:32:58;;;;;;;;;;;23.60;99.90;;;;;;5030857;28;19929;-68
2022/07/09 09:35:25;;;;;;;;;;;23.70;99.90;;;;;;5030948;28;19957;-69
2022/07/09 09:37:53;;;;;;;;;;;23.80;99.90;;;;;;5030683;28;19933;-70
2022/07/09 09:40:20;;;;;;;;;;;24.00;99.90;;;;;;5030717;28;19928;-71
2022/07/09 09:42:47;;;;;;;;;;;24.20;99.90;;;;;;5030663;28;19979;-69
2022/07/09 09:45:14;;;;;;;;;;;24.30;99.90;;;;;;5030720;28;19925;-68
2022/07/09 09:47:43;;;;;;;;;;;24.30;99.90;;;;;;5030592;28;20036;-68
2022/07/09 09:50:13;;;;;;;;;;;24.20;99.90;;;;;;5030979;28;19925;-68
2022/07/09 09:52:41;;;;;;;;;;;24.20;99.90;;;;;;5034377;28;19925;-69
2022/07/09 09:55:09;;;;;;;;;;;24.40;99.90;;;;;;5034458;28;19929;-69
2022/07/09 09:57:37;;;;;;;;;;;24.30;99.90;;;;;;5034332;28;20281;-69
2022/07/09 10:00:05;;;;;;;;;;;24.00;99.90;;;;;;5034042;28;20388;-69
2022/07/09 10:02:39;;;;;;;;;;;24.00;99.90;;;;;;5035450;28;19968;-69
2022/07/09 10:05:06;;;;;;;;;;;24.00;99.90;;;;;;5034438;28;19932;-69
2022/07/09 10:07:33;;;;;;;;;;;24.20;99.90;;;;;;5034020;28;20028;-67
2022/07/09 10:10:00;;;;;;;;;;;24.00;99.90;;;;;;5034023;28;19929;-71
2022/07/09 10:12:28;;;;;;;;;;;24.60;99.90;;;;;;5034079;28;19929;-69
2022/07/09 10:14:55;;;;;;;;;;;25.00;99.90;;;;;;5034312;28;19932;-68
2022/07/09 10:17:22;;;;;;;;;;;25.00;99.90;;;;;;5034161;28;20063;-68
2022/07/09 10:19:53;;;;;;;;;;;25.10;99.90;;;;;;5034030;28;20351;-67
2022/07/09 10:22:20;;;;;;;;;;;25.20;99.90;;;;;;5033900;28;19925;-67
2022/07/09 10:24:51;;;;;;;;;;;24.80;99.90;;;;;;5033832;28;19983;-68
2022/07/09 10:27:17;;;;;;;;;;;24.80;99.90;;;;;;5035059;28;20388;-66
2022/07/09 10:29:56;;;;;;;;;;;25.00;99.90;;;;;;5033329;28;19929;-67
2022/07/09 10:32:25;;;;;;;;;;;25.20;99.90;;;;;;5033813;28;20393;-67
2022/07/09 10:34:55;;;;;;;;;;;25.20;99.90;;;;;;5033756;28;19956;-67
2022/07/09 10:37:30;;;;;;;;;;;25.40;99.90;;;;;;5033722;28;20020;-68
2022/07/09 10:39:57;;;;;;;;;;;25.70;99.90;;;;;;5033261;28;19925;-70
2022/07/09 10:42:24;;;;;;;;;;;25.80;99.90;;;;;;5033578;28;19984;-66
2022/07/09 10:44:51;;;;;;;;;;;25.70;99.90;;;;;;5033365;28;20016;-68
2022/07/09 10:47:20;;;;;;;;;;;25.50;99.90;;;;;;5033474;28;19931;-68
2022/07/09 10:49:47;;;;;;;;;;;25.50;99.90;;;;;;5033211;28;19947;-67
2022/07/09 10:52:14;;;;;;;;;;;25.70;99.90;;;;;;5033508;28;20332;-67
2022/07/09 10:54:47;;;;;;;;;;;25.60;99.90;;;;;;5033467;28;19925;-67
2022/07/09 10:57:14;;;;;;;;;;;25.30;99.90;;;;;;5033527;28;19929;-67
2022/07/09 10:59:45;;;;;;;;;;;25.10;99.90;;;;;;5032883;28;19925;-67
2022/07/09 11:02:17;;;;;;;;;;;25.00;99.90;;;;;;5031975;28;20347;-67
2022/07/09 11:04:48;;;;;;;;;;;25.20;99.90;;;;;;5033298;28;19925;-67
2022/07/09 11:07:19;;;;;;;;;;;25.60;99.90;;;;;;5032869;28;19971;-67
2022/07/09 11:09:46;;;;;;;;;;;26.00;99.90;;;;;;5032662;28;19928;-67
2022/07/09 11:12:15;;;;;;;;;;;26.10;99.90;;;;;;5051013;28;19935;-67
2022/07/09 11:14:43;;;;;;;;;;;26.10;99.90;;;;;;5052835;28;20531;-67
2022/07/09 11:17:14;;;;;;;;;;;25.60;99.90;;;;;;5052936;28;19925;-67
2022/07/09 11:19:41;;;;;;;;;;;25.60;99.90;;;;;;5052444;28;19951;-67
2022/07/09 11:22:09;;;;;;;;;;;25.50;99.90;;;;;;5052732;28;19928;-68
2022/07/09 11:24:36;;;;;;;;;;;25.70;99.90;;;;;;5052633;28;19925;-68
2022/07/09 11:27:03;;;;;;;;;;;26.30;99.90;;;;;;5052995;28;19925;-67
2022/07/09 11:29:30;;;;;;;;;;;26.30;99.90;;;;;;5052132;28;19924;-68
2022/07/09 11:31:57;;;;;;;;;;;26.10;99.90;;;;;;5052794;28;20086;-68
2022/07/09 11:34:24;;;;;;;;;;;25.70;99.90;;;;;;5052429;28;19928;-68
2022/07/09 11:36:51;;;;;;;;;;;25.40;99.90;;;;;;5052727;28;20023;-70
2022/07/09 11:39:27;;;;;;;;;;;25.20;99.90;;;;;;5052009;28;20408;-68
2022/07/09 11:41:55;;;;;;;;;;;24.90;99.90;;;;;;5052409;28;19925;-68
2022/07/09 11:44:22;;;;;;;;;;;24.70;99.90;;;;;;5052438;28;19925;-68
2022/07/09 11:47:02;;;;;;;;;;;24.50;99.90;;;;;;5052297;28;19929;-68
2022/07/09 11:49:32;;;;;;;;;;;24.60;99.90;;;;;;5052017;28;20480;-68
2022/07/09 11:51:59;;;;;;;;;;;24.60;99.90;;;;;;5052233;28;19929;-69
2022/07/09 11:54:28;;;;;;;;;;;25.80;99.90;;;;;;5052147;28;19925;-68
2022/07/09 11:56:55;;;;;;;;;;;26.40;99.90;;;;;;5052310;28;19979;-67
2022/07/09 11:59:26;;;;;;;;;;;26.60;99.90;;;;;;5051618;28;19929;-68
2022/07/09 12:01:53;;;;;;;;;;;27.20;99.90;;;;;;5051961;28;19924;-68
2022/07/09 12:04:20;;;;;;;;;;;27.40;99.90;;;;;;5051855;28;19932;-68
2022/07/09 12:06:50;;;;;;;;;;;27.10;99.90;;;;;;5051428;28;19925;-68
2022/07/09 12:09:28;;;;;;;;;;;27.30;99.90;;;;;;5051527;28;19925;-68
2022/07/09 12:11:56;;;;;;;;;;;27.10;99.90;;;;;;5036260;28;20000;-68
2022/07/09 12:14:22;;;;;;;;;;;27.90;99.90;;;;;;5031611;28;19929;-69
2022/07/09 12:16:49;;;;;;;;;;;29.00;99.90;;;;;;5031922;28;19960;-68
2022/07/09 12:19:16;;;;;;;;;;;28.90;99.90;;;;;;5031766;28;19925;-68
2022/07/09 12:21:43;;;;;;;;;;;30.10;99.90;;;;;;5031736;28;19925;-69
2022/07/09 12:24:10;;;;;;;;;;;31.00;99.90;;;;;;5031717;28;19925;-68
2022/07/09 12:26:37;;;;;;;;;;;30.60;99.90;;;;;;5031940;28;19971;-68
2022/07/09 12:29:05;;;;;;;;;;;30.60;99.90;;;;;;5031602;28;19991;-70
2022/07/09 12:31:32;;;;;;;;;;;30.60;99.90;;;;;;5031575;28;20343;-69
2022/07/09 12:33:59;;;;;;;;;;;29.00;99.90;;;;;;5031810;28;19931;-67
2022/07/09 12:36:26;;;;;;;;;;;27.50;99.90;;;;;;5031687;28;19935;-68
2022/07/09 12:38:52;;;;;;;;;;;27.00;99.90;;;;;;5031378;28;20376;-67
2022/07/09 12:41:19;;;;;;;;;;;27.40;99.90;;;;;;5031510;28;19925;-68
2022/07/09 12:43:46;;;;;;;;;;;27.80;99.90;;;;;;5031768;28;19925;-67
2022/07/09 12:46:14;;;;;;;;;;;26.80;99.90;;;;;;5031584;28;19925;-67
2022/07/09 12:48:41;;;;;;;;;;;25.90;99.90;;;;;;5031301;28;19932;-67
2022/07/09 12:51:08;;;;;;;;;;;25.40;99.90;;;;;;5031136;28;20413;-67
2022/07/09 12:53:35;;;;;;;;;;;24.80;99.90;;;;;;5031338;28;19936;-67
2022/07/09 12:56:01;;;;;;;;;;;24.50;99.90;;;;;;5031242;28;19925;-67
2022/07/09 12:58:28;;;;;;;;;;;24.30;99.90;;;;;;5031534;28;19925;-68
2022/07/09 13:00:55;;;;;;;;;;;24.20;99.90;;;;;;5031214;28;19929;-67
2022/07/09 13:03:23;;;;;;;;;;;24.00;99.90;;;;;;5031361;28;19925;-67
2022/07/09 13:05:50;;;;;;;;;;;23.80;99.90;;;;;;5030734;28;19925;-67
2022/07/09 13:08:16;;;;;;;;;;;23.60;99.90;;;;;;5031066;28;19925;-67
2022/07/09 13:10:43;;;;;;;;;;;23.40;99.90;;;;;;5036419;28;19924;-67
2022/07/09 13:13:10;;;;;;;;;;;23.20;99.90;;;;;;5050939;28;19929;-70
2022/07/09 13:15:37;;;;;;;;;;;22.80;99.90;;;;;;5051328;28;19925;-68
2022/07/09 13:18:04;;;;;;;;;;;22.70;99.90;;;;;;5050901;28;19925;-67
2022/07/09 13:20:32;;;;;;;;;;;22.80;99.90;;;;;;5050665;28;20354;-69
2022/07/09 13:22:59;;;;;;;;;;;22.80;99.90;;;;;;5050682;28;20338;-67
2022/07/09 13:25:25;;;;;;;;;;;22.70;99.90;;;;;;5051947;28;19929;-67
2022/07/09 13:27:52;;;;;;;;;;;22.60;99.90;;;;;;5054833;28;19924;-67
2022/07/09 13:30:21;;;;;;;;;;;22.50;99.90;;;;;;5054606;28;19928;-69
2022/07/09 13:32:47;;;;;;;;;;;22.70;99.90;;;;;;5054802;28;19978;-69
2022/07/09 13:35:14;;;;;;;;;;;22.80;99.90;;;;;;5054738;28;19932;-68
2022/07/09 13:37:42;;;;;;;;;;;22.90;99.90;;;;;;5055041;28;19925;-68
2022/07/09 13:40:09;;;;;;;;;;;22.80;99.90;;;;;;5054540;28;19925;-67
2022/07/09 13:42:36;;;;;;;;;;;23.70;99.90;;;;;;5054676;28;19939;-68
2022/07/09 13:45:03;;;;;;;;;;;25.10;99.90;;;;;;5054860;28;19932;-67
2022/07/09 13:47:30;;;;;;;;;;;26.30;99.90;;;;;;5054594;28;19970;-70
2022/07/09 13:49:57;;;;;;;;;;;27.40;99.90;;;;;;5054430;28;19928;-68
2022/07/09 13:52:24;;;;;;;;;;;27.20;99.90;;;;;;5054590;28;19955;-68
2022/07/09 13:54:52;;;;;;;;;;;27.50;99.90;;;;;;5054241;28;19971;-70
2022/07/09 13:57:19;;;;;;;;;;;28.00;99.90;;;;;;5054409;28;19962;-68
2022/07/09 13:59:45;;;;;;;;;;;27.60;99.90;;;;;;5067767;22;20317;-68
2022/07/09 14:02:12;;;;;;;;;;;26.50;99.90;;;;;;5034372;28;19957;-68
2022/07/09 14:04:38;;;;;;;;;;;26.00;99.90;;;;;;5034096;28;20011;-66
2022/07/09 14:07:05;;;;;;;;;;;25.80;99.90;;;;;;5033896;28;20024;-66
2022/07/09 14:09:31;;;;;;;;;;;26.40;99.90;;;;;;5033547;28;20004;-66
2022/07/09 14:11:59;;;;;;;;;;;26.80;99.90;;;;;;5050189;28;19964;-66
2022/07/09 14:14:26;;;;;;;;;;;26.90;99.90;;;;;;5053935;28;19996;-66
2022/07/09 14:16:53;;;;;;;;;;;26.30;99.90;;;;;;5055265;28;19967;-66